Time;durP1;ratioP1;P1;durP2;ratioP2;P2;SDS_P1;SDS_P2;PMS_P1;PMS_P2;Temp;Humidity;BMP_temperature;BMP_pressure;BME280_temperature;BME280_humidity;BME280_pressure;Samples;Min_cycle;Max_cycle;Signal;HPM_P1;HPM_P2
2023/07/27 00:00:15;;;;;;;11.10;8.43;;;;;;;;;;5080003;28;20450;-61
2023/07/27 00:02:41;;;;;;;10.27;7.93;;;;;;;;;;5080053;28;20451;-61
2023/07/27 00:05:08;;;;;;;8.93;7.63;;;;;;;;;;5080018;28;20800;-62
2023/07/27 00:07:34;;;;;;;11.17;7.87;;;;;;;;;;5078580;28;20956;-61
2023/07/27 00:10:01;;;;;;;13.57;7.50;;;;;;;;;;5078691;28;20475;-61
2023/07/27 00:12:28;;;;;;;10.83;7.83;;;;;;;;;;5079855;28;20454;-61
2023/07/27 00:14:55;;;;;;;7.77;6.97;;;;;;;;;;5079779;28;20476;-63
2023/07/27 00:17:21;;;;;;;8.37;7.53;;;;;;;;;;5079939;28;20467;-61
2023/07/27 00:19:48;;;;;;;7.07;6.37;;;;;;;;;;5079447;28;20480;-62
2023/07/27 00:22:14;;;;;;;8.73;6.70;;;;;;;;;;5079457;28;20451;-61
2023/07/27 00:24:40;;;;;;;9.33;7.20;;;;;;;;;;5078943;28;20479;-62
2023/07/27 00:27:07;;;;;;;8.27;6.60;;;;;;;;;;5079375;28;20483;-62
2023/07/27 00:29:34;;;;;;;10.03;6.60;;;;;;;;;;5079733;28;20452;-62
2023/07/27 00:32:01;;;;;;;7.77;6.33;;;;;;;;;;5079051;28;20480;-63
2023/07/27 00:34:27;;;;;;;10.97;5.97;;;;;;;;;;5079067;28;20459;-62
2023/07/27 00:36:53;;;;;;;6.60;5.90;;;;;;;;;;5078667;28;20490;-62
2023/07/27 00:39:20;;;;;;;11.87;6.53;;;;;;;;;;5078462;28;20553;-62
2023/07/27 00:41:46;;;;;;;6.80;6.10;;;;;;;;;;5079634;28;20468;-62
2023/07/27 00:44:13;;;;;;;7.27;5.97;;;;;;;;;;5079098;28;20444;-62
2023/07/27 00:46:41;;;;;;;7.63;5.73;;;;;;;;;;5073954;28;20452;-62
2023/07/27 00:49:08;;;;;;;7.00;5.47;;;;;;;;;;5079010;28;20539;-62
2023/07/27 00:51:35;;;;;;;10.40;5.77;;;;;;;;;;5079412;28;20515;-62
2023/07/27 00:54:02;;;;;;;7.90;5.83;;;;;;;;;;5078891;28;20493;-62
2023/07/27 00:56:29;;;;;;;6.47;5.87;;;;;;;;;;5070216;28;20451;-62
2023/07/27 00:58:55;;;;;;;7.10;5.67;;;;;;;;;;5083232;28;20559;-62
2023/07/27 01:01:22;;;;;;;6.90;6.20;;;;;;;;;;5083414;28;20745;-62
2023/07/27 01:03:50;;;;;;;8.23;6.20;;;;;;;;;;5083093;28;20467;-62
2023/07/27 01:06:17;;;;;;;7.60;6.10;;;;;;;;;;5082480;28;20451;-62
2023/07/27 01:08:44;;;;;;;6.10;5.50;;;;;;;;;;5083051;28;20494;-62
2023/07/27 01:11:14;;;;;;;6.37;5.73;;;;;;;;;;5082654;28;20486;-62
2023/07/27 01:13:42;;;;;;;8.37;6.83;;;;;;;;;;5082806;28;20476;-62
2023/07/27 01:16:09;;;;;;;8.43;6.80;;;;;;;;;;5082528;28;20895;-62
2023/07/27 01:18:40;;;;;;;7.83;5.87;;;;;;;;;;5082742;28;20487;-62
2023/07/27 01:21:14;;;;;;;22.53;8.03;;;;;;;;;;5082992;28;20444;-62
2023/07/27 01:24:13;;;;;;;9.43;6.33;;;;;;;;;;5078039;28;20507;-62
2023/07/27 01:26:47;;;;;;;7.87;6.23;;;;;;;;;;5020121;28;20549;-62
2023/07/27 01:29:19;;;;;;;7.33;6.43;;;;;;;;;;5020461;28;20893;-61
2023/07/27 01:31:47;;;;;;;6.47;5.70;;;;;;;;;;5017104;28;20447;-61
2023/07/27 01:34:17;;;;;;;7.40;5.90;;;;;;;;;;5019779;28;20983;-61
2023/07/27 01:36:43;;;;;;;8.10;6.13;;;;;;;;;;5019326;28;20517;-61
2023/07/27 01:39:11;;;;;;;6.90;5.50;;;;;;;;;;5019054;28;21041;-61
2023/07/27 01:41:41;;;;;;;8.80;6.30;;;;;;;;;;5016111;28;20546;-61
2023/07/27 01:44:09;;;;;;;7.63;6.27;;;;;;;;;;5016667;28;20492;-62
2023/07/27 01:46:36;;;;;;;7.07;5.67;;;;;;;;;;5020098;28;20473;-61
2023/07/27 01:49:04;;;;;;;6.80;5.90;;;;;;;;;;5020036;28;20550;-62
2023/07/27 01:51:32;;;;;;;7.33;5.57;;;;;;;;;;5019888;28;20461;-61
2023/07/27 01:53:58;;;;;;;11.00;5.60;;;;;;;;;;5019881;28;20478;-61
2023/07/27 01:56:25;;;;;;;11.33;6.00;;;;;;;;;;5019456;28;20489;-61
2023/07/27 01:58:52;;;;;;;7.57;5.73;;;;;;;;;;5081961;28;20522;-62
2023/07/27 02:01:19;;;;;;;7.30;6.60;;;;;;;;;;5082364;28;20439;-61
2023/07/27 02:03:46;;;;;;;6.23;5.57;;;;;;;;;;5082273;28;20734;-61
2023/07/27 02:06:14;;;;;;;6.67;5.97;;;;;;;;;;5080186;28;20471;-62
2023/07/27 02:08:40;;;;;;;7.40;6.50;;;;;;;;;;5082015;28;20530;-61
2023/07/27 02:11:08;;;;;;;7.47;5.23;;;;;;;;;;5081409;28;20479;-61
2023/07/27 02:13:39;;;;;;;6.03;5.37;;;;;;;;;;5070931;28;20491;-61
2023/07/27 02:16:08;;;;;;;7.80;5.53;;;;;;;;;;5081690;28;20456;-61
2023/07/27 02:18:35;;;;;;;9.73;5.80;;;;;;;;;;5081578;28;20944;-62
2023/07/27 02:21:03;;;;;;;7.00;5.27;;;;;;;;;;5081969;28;20489;-61
2023/07/27 02:23:31;;;;;;;6.20;5.33;;;;;;;;;;5081537;28;20462;-62
2023/07/27 02:25:57;;;;;;;6.23;5.63;;;;;;;;;;5081234;28;20459;-62
2023/07/27 02:28:27;;;;;;;8.00;5.40;;;;;;;;;;5081853;28;20564;-61
2023/07/27 02:30:53;;;;;;;7.37;6.33;;;;;;;;;;5081967;28;20483;-62
2023/07/27 02:33:19;;;;;;;7.07;6.37;;;;;;;;;;5081537;28;20524;-61
2023/07/27 02:35:46;;;;;;;6.00;5.40;;;;;;;;;;5080985;28;20452;-61
2023/07/27 02:38:12;;;;;;;8.23;6.00;;;;;;;;;;5080793;28;20507;-61
2023/07/27 02:40:41;;;;;;;9.00;6.10;;;;;;;;;;5081100;28;20479;-61
2023/07/27 02:43:07;;;;;;;8.23;6.40;;;;;;;;;;5081257;28;20452;-62
2023/07/27 02:45:33;;;;;;;5.90;5.30;;;;;;;;;;5081148;28;20456;-62
2023/07/27 02:48:00;;;;;;;6.50;6.00;;;;;;;;;;5081309;28;20520;-62
2023/07/27 02:50:26;;;;;;;7.10;6.43;;;;;;;;;;5081335;28;20563;-62
2023/07/27 02:52:53;;;;;;;6.80;6.20;;;;;;;;;;5081286;28;21068;-62
2023/07/27 02:55:19;;;;;;;5.97;5.37;;;;;;;;;;5080570;28;20524;-62
2023/07/27 02:57:47;;;;;;;6.07;5.20;;;;;;;;;;5081047;28;20558;-62
2023/07/27 03:00:14;;;;;;;9.30;6.20;;;;;;;;;;5080723;28;21083;-61
2023/07/27 03:02:40;;;;;;;6.00;5.37;;;;;;;;;;5080694;28;20471;-61
2023/07/27 03:05:07;;;;;;;9.90;5.60;;;;;;;;;;5080987;28;20480;-61
2023/07/27 03:07:33;;;;;;;6.33;5.00;;;;;;;;;;5079784;28;20475;-62
2023/07/27 03:09:59;;;;;;;6.70;5.20;;;;;;;;;;5080438;28;20452;-62
2023/07/27 03:12:26;;;;;;;6.00;5.20;;;;;;;;;;5080514;28;21020;-61
2023/07/27 03:14:53;;;;;;;6.30;4.63;;;;;;;;;;5080783;28;20511;-61
2023/07/27 03:17:20;;;;;;;5.40;4.43;;;;;;;;;;5079992;28;20523;-61
2023/07/27 03:19:46;;;;;;;7.70;5.00;;;;;;;;;;5079528;28;20479;-61
2023/07/27 03:22:13;;;;;;;5.93;4.33;;;;;;;;;;5075509;28;20535;-61
2023/07/27 03:24:39;;;;;;;4.53;3.97;;;;;;;;;;5079673;28;20452;-62
2023/07/27 03:27:06;;;;;;;9.10;5.40;;;;;;;;;;5080334;28;20521;-62
2023/07/27 03:29:32;;;;;;;5.53;4.60;;;;;;;;;;5080259;28;20799;-62
2023/07/27 03:32:00;;;;;;;8.20;4.67;;;;;;;;;;5080530;28;20579;-61
2023/07/27 03:34:26;;;;;;;6.10;4.33;;;;;;;;;;5079573;28;20551;-61
2023/07/27 03:36:52;;;;;;;5.53;4.37;;;;;;;;;;5079317;28;20551;-61
2023/07/27 03:39:19;;;;;;;5.07;4.30;;;;;;;;;;5079283;28;20497;-61
2023/07/27 03:41:45;;;;;;;9.33;4.20;;;;;;;;;;5080532;28;20512;-61
2023/07/27 03:44:14;;;;;;;5.70;4.33;;;;;;;;;;5080035;28;20510;-61
2023/07/27 03:46:40;;;;;;;7.23;4.50;;;;;;;;;;5079757;28;20489;-61
2023/07/27 03:49:08;;;;;;;11.13;4.20;;;;;;;;;;5079991;28;20483;-61
2023/07/27 03:51:35;;;;;;;6.40;4.20;;;;;;;;;;5080296;28;20501;-61
2023/07/27 03:54:01;;;;;;;5.53;4.13;;;;;;;;;;5079903;28;20479;-61
2023/07/27 03:56:28;;;;;;;6.10;4.20;;;;;;;;;;5079396;28;20468;-61
2023/07/27 03:58:54;;;;;;;7.33;4.50;;;;;;;;;;5079752;28;20507;-61
2023/07/27 04:01:20;;;;;;;4.37;3.73;;;;;;;;;;5080120;28;20472;-61
2023/07/27 04:03:47;;;;;;;3.63;3.30;;;;;;;;;;5079578;28;20455;-61
2023/07/27 04:06:14;;;;;;;5.10;4.10;;;;;;;;;;5079086;28;20479;-61
2023/07/27 04:08:41;;;;;;;6.67;4.10;;;;;;;;;;5079262;28;21032;-62
2023/07/27 04:11:07;;;;;;;7.60;4.43;;;;;;;;;;5079166;28;20455;-62
2023/07/27 04:13:34;;;;;;;3.93;3.53;;;;;;;;;;5079437;28;20721;-62
2023/07/27 04:16:00;;;;;;;4.80;4.37;;;;;;;;;;5076878;28;20451;-62
2023/07/27 04:18:27;;;;;;;4.73;3.57;;;;;;;;;;5070298;28;20528;-62
2023/07/27 04:20:53;;;;;;;6.83;4.10;;;;;;;;;;5064474;28;20532;-62
2023/07/27 04:23:21;;;;;;;10.40;5.03;;;;;;;;;;5078409;28;20551;-62
2023/07/27 04:25:47;;;;;;;5.53;3.97;;;;;;;;;;5077741;28;20523;-62
2023/07/27 04:28:14;;;;;;;5.30;4.30;;;;;;;;;;5078476;28;20475;-62
2023/07/27 04:30:42;;;;;;;5.50;4.30;;;;;;;;;;5076332;28;20987;-61
2023/07/27 04:33:08;;;;;;;5.63;4.13;;;;;;;;;;5079055;28;20447;-61
2023/07/27 04:35:34;;;;;;;6.87;4.50;;;;;;;;;;5077861;28;20941;-62
2023/07/27 04:38:01;;;;;;;8.40;5.07;;;;;;;;;;5078022;28;20559;-62
2023/07/27 04:40:28;;;;;;;5.60;4.77;;;;;;;;;;5077843;28;20574;-62
2023/07/27 04:42:55;;;;;;;6.90;5.07;;;;;;;;;;5078411;28;20507;-62
2023/07/27 04:45:21;;;;;;;7.67;5.00;;;;;;;;;;5078843;28;20472;-62
2023/07/27 04:47:48;;;;;;;4.97;4.43;;;;;;;;;;5078399;28;20449;-61
2023/07/27 04:50:14;;;;;;;8.17;4.90;;;;;;;;;;5078561;28;20536;-61
2023/07/27 04:52:41;;;;;;;5.70;4.70;;;;;;;;;;5078308;28;20448;-61
2023/07/27 04:55:07;;;;;;;8.40;4.93;;;;;;;;;;5077966;28;20543;-61
2023/07/27 04:57:35;;;;;;;7.80;5.40;;;;;;;;;;5078889;28;20559;-61
2023/07/27 05:00:01;;;;;;;5.67;4.47;;;;;;;;;;5070627;28;20487;-62
2023/07/27 05:02:28;;;;;;;6.43;5.40;;;;;;;;;;5078596;28;20512;-62
2023/07/27 05:04:54;;;;;;;6.03;5.13;;;;;;;;;;5078388;28;20551;-61
2023/07/27 05:07:21;;;;;;;5.83;4.70;;;;;;;;;;5070785;28;20455;-61
2023/07/27 05:09:47;;;;;;;6.47;5.30;;;;;;;;;;5077768;28;20559;-60
2023/07/27 05:12:15;;;;;;;8.27;5.87;;;;;;;;;;5078672;28;20451;-61
2023/07/27 05:14:42;;;;;;;6.53;5.40;;;;;;;;;;5077758;28;20490;-61
2023/07/27 05:17:09;;;;;;;8.10;5.70;;;;;;;;;;5078176;28;20486;-61
2023/07/27 05:19:35;;;;;;;9.40;5.77;;;;;;;;;;5078020;28;21082;-62
2023/07/27 05:22:01;;;;;;;7.40;5.33;;;;;;;;;;5077668;28;20471;-61
2023/07/27 05:24:28;;;;;;;7.60;6.33;;;;;;;;;;5077556;28;21161;-61
2023/07/27 05:26:54;;;;;;;7.70;5.50;;;;;;;;;;5076152;28;20456;-61
2023/07/27 05:29:20;;;;;;;9.00;6.37;;;;;;;;;;5077524;28;20994;-61
2023/07/27 05:31:48;;;;;;;8.30;6.67;;;;;;;;;;5078417;28;20504;-61
2023/07/27 05:34:15;;;;;;;6.60;5.90;;;;;;;;;;5077908;28;20471;-61
2023/07/27 05:36:41;;;;;;;6.77;5.40;;;;;;;;;;5066669;28;20702;-61
2023/07/27 05:39:08;;;;;;;10.27;6.63;;;;;;;;;;5063281;28;20480;-62
2023/07/27 05:41:34;;;;;;;6.70;6.00;;;;;;;;;;5076783;28;20949;-61
2023/07/27 05:44:01;;;;;;;7.73;6.10;;;;;;;;;;5080589;28;20540;-62
2023/07/27 05:46:27;;;;;;;7.37;6.53;;;;;;;;;;5081540;28;20511;-61
2023/07/27 05:48:55;;;;;;;8.47;6.90;;;;;;;;;;5081433;28;20841;-61
2023/07/27 05:51:22;;;;;;;11.03;7.30;;;;;;;;;;5080835;28;20483;-61
2023/07/27 05:53:48;;;;;;;6.43;5.83;;;;;;;;;;5081405;28;20483;-62
2023/07/27 05:56:14;;;;;;;11.50;5.77;;;;;;;;;;5081290;28;20490;-61
2023/07/27 05:58:41;;;;;;;8.93;5.67;;;;;;;;;;5080875;28;20964;-61
2023/07/27 06:01:07;;;;;;;8.47;6.00;;;;;;;;;;5078400;28;20533;-62
2023/07/27 06:03:35;;;;;;;6.60;5.90;;;;;;;;;;5079884;28;20460;-62
2023/07/27 06:06:03;;;;;;;6.70;5.60;;;;;;;;;;5079774;28;20454;-62
2023/07/27 06:08:29;;;;;;;7.00;5.77;;;;;;;;;;5081331;28;20455;-61
2023/07/27 06:11:03;;;;;;;7.73;4.87;;;;;;;;;;5080573;28;20888;-62
2023/07/27 06:13:30;;;;;;;7.47;5.30;;;;;;;;;;5080784;28;20511;-61
2023/07/27 06:15:56;;;;;;;6.77;4.97;;;;;;;;;;5081013;28;20458;-61
2023/07/27 06:18:23;;;;;;;6.73;5.03;;;;;;;;;;5080367;28;20534;-61
2023/07/27 06:20:49;;;;;;;6.50;5.30;;;;;;;;;;5080519;28;20513;-62
2023/07/27 06:23:17;;;;;;;10.20;5.67;;;;;;;;;;5080150;28;20460;-61
2023/07/27 06:25:43;;;;;;;6.13;5.13;;;;;;;;;;5080352;28;20491;-61
2023/07/27 06:28:09;;;;;;;6.50;4.70;;;;;;;;;;5080032;28;20807;-62
2023/07/27 06:30:36;;;;;;;6.30;5.50;;;;;;;;;;5080731;28;20543;-62
2023/07/27 06:33:03;;;;;;;6.57;5.87;;;;;;;;;;5077486;28;20486;-62
2023/07/27 06:35:29;;;;;;;6.70;5.97;;;;;;;;;;5066086;28;20867;-62
2023/07/27 06:37:55;;;;;;;7.70;5.47;;;;;;;;;;5080185;28;20518;-61
2023/07/27 06:40:24;;;;;;;7.63;5.90;;;;;;;;;;5079943;28;20568;-62
2023/07/27 06:42:50;;;;;;;9.07;5.40;;;;;;;;;;5080213;28;20534;-61
2023/07/27 06:45:16;;;;;;;6.63;5.50;;;;;;;;;;5080598;28;20472;-61
2023/07/27 06:47:43;;;;;;;9.77;5.27;;;;;;;;;;5080666;28;20476;-61
2023/07/27 06:50:10;;;;;;;9.17;5.40;;;;;;;;;;5079874;28;20483;-61
2023/07/27 06:52:36;;;;;;;13.03;5.27;;;;;;;;;;5080373;28;20447;-61
2023/07/27 06:55:02;;;;;;;6.37;5.00;;;;;;;;;;5079381;28;20483;-61
2023/07/27 06:57:30;;;;;;;8.37;5.10;;;;;;;;;;5079628;28;20502;-61
2023/07/27 06:59:57;;;;;;;8.67;5.43;;;;;;;;;;5080264;28;20484;-62
2023/07/27 07:02:24;;;;;;;7.90;4.53;;;;;;;;;;5080463;28;20561;-62
2023/07/27 07:04:50;;;;;;;6.23;4.70;;;;;;;;;;5079376;28;20503;-62
2023/07/27 07:07:16;;;;;;;7.10;4.77;;;;;;;;;;5079032;28;20452;-61
2023/07/27 07:09:43;;;;;;;7.23;5.73;;;;;;;;;;5079519;28;20452;-61
2023/07/27 07:12:09;;;;;;;4.60;4.07;;;;;;;;;;5070051;28;20453;-61
2023/07/27 07:14:37;;;;;;;7.40;4.93;;;;;;;;;;5080121;28;20470;-62
2023/07/27 07:17:04;;;;;;;6.40;4.90;;;;;;;;;;5079607;28;20460;-62
2023/07/27 07:19:31;;;;;;;5.73;4.53;;;;;;;;;;5078835;28;20448;-62
2023/07/27 07:21:57;;;;;;;6.40;5.00;;;;;;;;;;5079944;28;20444;-63
2023/07/27 07:24:24;;;;;;;6.13;4.77;;;;;;;;;;5079645;28;20455;-62
2023/07/27 07:26:50;;;;;;;8.60;4.50;;;;;;;;;;5078597;28;20475;-62
2023/07/27 07:29:17;;;;;;;6.03;4.40;;;;;;;;;;5079832;28;20463;-62
2023/07/27 07:31:44;;;;;;;5.30;4.00;;;;;;;;;;5079536;28;20538;-62
2023/07/27 07:34:11;;;;;;;4.57;4.17;;;;;;;;;;5078804;28;20444;-63
2023/07/27 07:36:37;;;;;;;6.80;4.33;;;;;;;;;;5078805;28;20452;-62
2023/07/27 07:39:04;;;;;;;6.87;5.10;;;;;;;;;;5079664;28;20456;-63
2023/07/27 07:41:31;;;;;;;7.47;5.60;;;;;;;;;;5078385;28;20488;-62
2023/07/27 07:43:57;;;;;;;11.30;4.57;;;;;;;;;;5076263;28;20481;-63
2023/07/27 07:46:24;;;;;;;6.97;4.80;;;;;;;;;;5076820;28;20586;-63
2023/07/27 07:48:52;;;;;;;5.67;4.83;;;;;;;;;;5076440;28;20454;-63
2023/07/27 07:51:18;;;;;;;6.27;4.50;;;;;;;;;;5079164;28;20459;-62
2023/07/27 07:53:45;;;;;;;6.07;4.87;;;;;;;;;;5079156;28;20448;-62
2023/07/27 07:56:13;;;;;;;6.83;4.73;;;;;;;;;;5076738;28;20460;-62
2023/07/27 07:58:40;;;;;;;8.10;5.10;;;;;;;;;;5079269;28;20523;-62
2023/07/27 08:01:06;;;;;;;9.10;5.10;;;;;;;;;;5078700;28;20526;-62
2023/07/27 08:03:32;;;;;;;7.90;5.80;;;;;;;;;;5078320;28;20459;-62
2023/07/27 08:06:00;;;;;;;7.00;5.23;;;;;;;;;;5077634;28;20441;-63
2023/07/27 08:08:27;;;;;;;7.30;5.80;;;;;;;;;;5078457;28;20570;-64
2023/07/27 08:10:53;;;;;;;6.80;5.17;;;;;;;;;;5077367;28;20948;-63
2023/07/27 08:13:20;;;;;;;8.83;5.47;;;;;;;;;;5078887;28;20443;-63
2023/07/27 08:15:51;;;;;;;7.10;5.80;;;;;;;;;;5071784;28;20459;-62
2023/07/27 08:18:18;;;;;;;7.23;5.60;;;;;;;;;;5078095;28;20880;-62
2023/07/27 08:20:44;;;;;;;6.27;5.37;;;;;;;;;;5079013;28;20487;-63
2023/07/27 08:23:13;;;;;;;14.67;6.90;;;;;;;;;;5079264;28;20444;-62
2023/07/27 08:25:39;;;;;;;8.00;5.90;;;;;;;;;;5078208;28;20528;-62
2023/07/27 08:28:06;;;;;;;5.97;5.40;;;;;;;;;;5077214;28;20474;-62
2023/07/27 08:30:33;;;;;;;6.77;6.07;;;;;;;;;;5078533;28;20527;-62
2023/07/27 08:32:59;;;;;;;8.67;6.40;;;;;;;;;;5077865;28;20436;-62
2023/07/27 08:35:26;;;;;;;8.30;5.97;;;;;;;;;;5078971;28;20460;-63
2023/07/27 08:37:52;;;;;;;8.40;6.20;;;;;;;;;;5078125;28;20538;-62
2023/07/27 08:40:20;;;;;;;5.50;5.00;;;;;;;;;;5077460;28;20513;-62
2023/07/27 08:42:47;;;;;;;6.50;5.90;;;;;;;;;;5078502;28;20471;-63
2023/07/27 08:45:14;;;;;;;5.70;5.20;;;;;;;;;;5078482;28;20452;-63
2023/07/27 08:47:42;;;;;;;6.70;5.17;;;;;;;;;;5077666;28;20463;-63
2023/07/27 08:50:09;;;;;;;9.90;4.83;;;;;;;;;;5078613;28;20462;-62
2023/07/27 08:52:35;;;;;;;7.10;5.23;;;;;;;;;;5077935;28;20443;-62
2023/07/27 08:55:02;;;;;;;5.40;4.87;;;;;;;;;;5076672;28;20463;-63
2023/07/27 08:57:30;;;;;;;5.07;4.47;;;;;;;;;;5078886;28;20482;-62
2023/07/27 08:59:56;;;;;;;5.10;4.60;;;;;;;;;;5078477;28;20469;-61
2023/07/27 09:02:23;;;;;;;6.27;5.60;;;;;;;;;;5077645;28;20825;-62
2023/07/27 09:04:50;;;;;;;5.70;5.20;;;;;;;;;;5077933;28;20955;-61
2023/07/27 09:07:16;;;;;;;6.10;5.13;;;;;;;;;;5077462;28;20452;-61
2023/07/27 09:09:50;;;;;;;6.03;5.53;;;;;;;;;;5076548;28;20459;-61
2023/07/27 09:12:18;;;;;;;6.00;5.50;;;;;;;;;;5072455;28;20455;-61
2023/07/27 09:14:46;;;;;;;5.90;5.40;;;;;;;;;;5077685;28;20482;-61
2023/07/27 09:17:13;;;;;;;6.07;5.47;;;;;;;;;;5080732;28;20664;-61
2023/07/27 09:19:41;;;;;;;4.80;4.30;;;;;;;;;;5082470;28;21203;-61
2023/07/27 09:22:08;;;;;;;5.37;4.70;;;;;;;;;;5081256;28;20479;-60
2023/07/27 09:24:35;;;;;;;4.43;4.03;;;;;;;;;;5076024;28;20448;-61
2023/07/27 09:27:02;;;;;;;5.83;4.70;;;;;;;;;;5081640;28;20652;-61
2023/07/27 09:29:29;;;;;;;4.70;4.30;;;;;;;;;;5081409;28;20539;-61
2023/07/27 09:31:58;;;;;;;5.50;4.73;;;;;;;;;;5081560;28;20675;-61
2023/07/27 09:34:28;;;;;;;6.07;3.80;;;;;;;;;;5081001;28;20554;-61
2023/07/27 09:36:55;;;;;;;4.00;3.70;;;;;;;;;;5080704;28;20509;-61
2023/07/27 09:39:22;;;;;;;4.30;3.90;;;;;;;;;;5080797;28;20740;-61
2023/07/27 09:41:48;;;;;;;3.77;3.47;;;;;;;;;;5081103;28;20487;-61
2023/07/27 09:44:15;;;;;;;3.87;3.57;;;;;;;;;;5081355;28;20451;-62
2023/07/27 09:46:42;;;;;;;4.30;3.00;;;;;;;;;;5081011;28;20471;-61
2023/07/27 09:49:09;;;;;;;2.97;2.47;;;;;;;;;;5081591;28;20432;-61
2023/07/27 09:51:36;;;;;;;4.50;3.20;;;;;;;;;;5080468;28;21016;-61
2023/07/27 09:54:04;;;;;;;3.23;2.93;;;;;;;;;;5080644;28;20609;-61
2023/07/27 09:56:31;;;;;;;3.37;3.07;;;;;;;;;;5080099;28;20501;-61
2023/07/27 09:58:58;;;;;;;3.30;3.00;;;;;;;;;;5081436;28;20444;-60
2023/07/27 10:01:24;;;;;;;3.80;3.20;;;;;;;;;;5080815;28;20760;-61
2023/07/27 10:03:52;;;;;;;3.20;2.90;;;;;;;;;;5081548;28;20501;-61
2023/07/27 10:06:19;;;;;;;2.30;2.10;;;;;;;;;;5080643;28;20452;-61
2023/07/27 10:08:47;;;;;;;2.50;2.30;;;;;;;;;;5079401;28;20494;-61
2023/07/27 10:11:14;;;;;;;2.60;2.40;;;;;;;;;;5080044;28;20462;-61
2023/07/27 10:13:41;;;;;;;2.60;2.40;;;;;;;;;;5080976;28;20451;-60
2023/07/27 10:16:09;;;;;;;3.00;2.80;;;;;;;;;;5072737;28;20530;-61
2023/07/27 10:18:39;;;;;;;2.93;2.73;;;;;;;;;;5080060;28;20456;-61
2023/07/27 10:21:23;;;;;;;3.23;2.37;;;;;;;;;;5080079;28;20523;-61
2023/07/27 10:23:54;;;;;;;2.73;2.53;;;;;;;;;;5075730;28;20460;-61
2023/07/27 10:26:20;;;;;;;2.03;1.93;;;;;;;;;;5080329;28;20525;-61
2023/07/27 10:28:48;;;;;;;2.50;2.30;;;;;;;;;;5080485;28;20458;-61
2023/07/27 10:31:15;;;;;;;2.23;2.03;;;;;;;;;;5080051;28;20459;-61
2023/07/27 10:33:45;;;;;;;3.10;2.57;;;;;;;;;;5081020;28;20451;-61
2023/07/27 10:36:11;;;;;;;5.43;2.50;;;;;;;;;;5076696;28;20580;-61
2023/07/27 10:38:39;;;;;;;2.50;2.30;;;;;;;;;;5079212;28;20925;-61
2023/07/27 10:41:12;;;;;;;3.63;2.33;;;;;;;;;;5079602;28;20491;-62
2023/07/27 10:43:39;;;;;;;2.20;2.00;;;;;;;;;;5080916;28;20974;-61
2023/07/27 10:46:21;;;;;;;3.07;2.73;;;;;;;;;;5080274;28;20454;-61
2023/07/27 10:48:56;;;;;;;2.20;1.77;;;;;;;;;;5080499;28;20517;-60
2023/07/27 10:51:23;;;;;;;2.10;2.00;;;;;;;;;;5070173;28;20478;-61
2023/07/27 10:53:51;;;;;;;2.30;2.10;;;;;;;;;;5079774;28;20451;-61
2023/07/27 10:56:18;;;;;;;2.40;2.13;;;;;;;;;;5080083;28;20452;-61
2023/07/27 10:58:45;;;;;;;1.90;1.70;;;;;;;;;;5080652;28;20483;-61
2023/07/27 11:01:11;;;;;;;1.90;1.50;;;;;;;;;;5079583;28;20486;-61
2023/07/27 11:03:38;;;;;;;1.70;1.60;;;;;;;;;;5080269;28;20474;-60
2023/07/27 11:06:06;;;;;;;1.43;1.27;;;;;;;;;;5079909;28;20455;-62
2023/07/27 11:08:36;;;;;;;1.60;1.50;;;;;;;;;;5079627;28;20460;-61
2023/07/27 11:11:15;;;;;;;1.30;1.20;;;;;;;;;;5079559;28;20458;-62
2023/07/27 11:13:42;;;;;;;1.87;1.43;;;;;;;;;;5077233;28;20651;-61
2023/07/27 11:16:08;;;;;;;1.87;1.77;;;;;;;;;;5079328;28;20466;-61
2023/07/27 11:18:35;;;;;;;1.87;1.20;;;;;;;;;;5080220;28;20462;-62
2023/07/27 11:21:02;;;;;;;1.27;1.17;;;;;;;;;;5079956;28;20498;-61
2023/07/27 11:23:29;;;;;;;1.60;1.37;;;;;;;;;;5078978;28;20777;-61
2023/07/27 11:25:56;;;;;;;2.13;1.50;;;;;;;;;;5079487;28;20448;-61
2023/07/27 11:28:24;;;;;;;1.33;1.00;;;;;;;;;;5080250;28;20440;-62
2023/07/27 11:30:51;;;;;;;1.47;1.00;;;;;;;;;;5079128;28;20452;-62
2023/07/27 11:33:17;;;;;;;1.10;0.97;;;;;;;;;;5079858;28;20458;-61
2023/07/27 11:35:47;;;;;;;0.70;0.70;;;;;;;;;;5078794;28;20563;-61
2023/07/27 11:38:14;;;;;;;0.70;0.70;;;;;;;;;;5078550;28;20483;-60
2023/07/27 11:40:44;;;;;;;1.20;1.10;;;;;;;;;;5077858;28;20456;-61
2023/07/27 11:43:10;;;;;;;1.57;1.10;;;;;;;;;;5079582;28;20444;-61
2023/07/27 11:45:38;;;;;;;1.07;0.80;;;;;;;;;;5078954;28;20455;-61
2023/07/27 11:48:05;;;;;;;1.30;0.80;;;;;;;;;;5079404;28;20517;-62
2023/07/27 11:50:35;;;;;;;0.73;0.70;;;;;;;;;;5079545;28;20488;-62
2023/07/27 11:53:03;;;;;;;1.27;0.80;;;;;;;;;;5078576;28;20472;-62
2023/07/27 11:55:32;;;;;;;0.90;0.87;;;;;;;;;;5078284;28;20460;-62
2023/07/27 11:57:58;;;;;;;2.30;1.23;;;;;;;;;;5079345;28;20830;-62
2023/07/27 12:00:24;;;;;;;1.00;0.90;;;;;;;;;;5078183;28;20486;-62
2023/07/27 12:02:52;;;;;;;1.00;1.00;;;;;;;;;;5079051;28;20503;-62
2023/07/27 12:05:20;;;;;;;0.83;0.83;;;;;;;;;;5066264;28;20472;-62
2023/07/27 12:07:47;;;;;;;1.10;1.00;;;;;;;;;;5077795;28;21003;-62
2023/07/27 12:10:14;;;;;;;1.23;1.03;;;;;;;;;;5078238;28;20436;-62
2023/07/27 12:12:47;;;;;;;0.97;0.97;;;;;;;;;;5079145;28;20468;-62
2023/07/27 12:15:23;;;;;;;1.30;1.20;;;;;;;;;;5078337;28;20444;-62
2023/07/27 12:17:55;;;;;;;2.03;1.20;;;;;;;;;;5068416;28;20506;-62
2023/07/27 12:20:21;;;;;;;1.30;1.17;;;;;;;;;;5078931;28;20448;-62
2023/07/27 12:22:48;;;;;;;1.23;1.13;;;;;;;;;;5078055;28;20990;-62
2023/07/27 12:25:15;;;;;;;1.40;1.30;;;;;;;;;;5078172;28;21042;-62
2023/07/27 12:27:42;;;;;;;1.70;1.60;;;;;;;;;;5078791;28;20456;-62
2023/07/27 12:30:09;;;;;;;1.60;1.50;;;;;;;;;;5078167;28;21030;-61
2023/07/27 12:32:35;;;;;;;2.30;1.63;;;;;;;;;;5079158;28;20478;-61
2023/07/27 12:35:04;;;;;;;2.20;1.83;;;;;;;;;;5078766;28;20808;-61
2023/07/27 12:37:31;;;;;;;2.30;2.20;;;;;;;;;;5077618;28;20484;-61
2023/07/27 12:39:57;;;;;;;2.40;2.20;;;;;;;;;;5076116;28;20494;-60
2023/07/27 12:42:25;;;;;;;2.20;2.10;;;;;;;;;;5078684;28;20490;-60
2023/07/27 12:44:51;;;;;;;2.30;2.20;;;;;;;;;;5078235;28;20444;-61
2023/07/27 12:47:18;;;;;;;2.27;2.07;;;;;;;;;;5078569;28;20483;-61
2023/07/27 12:49:45;;;;;;;2.50;2.30;;;;;;;;;;5078726;28;20448;-61
2023/07/27 12:52:12;;;;;;;2.00;1.90;;;;;;;;;;5084550;28;20458;-61
2023/07/27 12:54:39;;;;;;;1.93;1.83;;;;;;;;;;5085268;28;20473;-61
2023/07/27 12:57:06;;;;;;;2.50;2.10;;;;;;;;;;5081551;28;20483;-60
2023/07/27 12:59:32;;;;;;;2.13;2.03;;;;;;;;;;5084962;28;20479;-61
2023/07/27 13:01:58;;;;;;;1.93;1.83;;;;;;;;;;5085154;28;20570;-61
2023/07/27 13:04:25;;;;;;;1.53;1.43;;;;;;;;;;5085701;28;20490;-61
2023/07/27 13:06:51;;;;;;;1.67;1.40;;;;;;;;;;5083502;28;20448;-61
2023/07/27 13:09:19;;;;;;;1.50;1.40;;;;;;;;;;5085068;28;20535;-61
2023/07/27 13:11:46;;;;;;;1.40;1.30;;;;;;;;;;5084344;28;20466;-61
2023/07/27 13:14:13;;;;;;;1.10;1.10;;;;;;;;;;5084659;28;20448;-61
2023/07/27 13:16:39;;;;;;;1.77;1.67;;;;;;;;;;5085075;28;20520;-61
2023/07/27 13:19:06;;;;;;;1.50;1.40;;;;;;;;;;5079546;28;20464;-61
2023/07/27 13:21:32;;;;;;;1.40;1.30;;;;;;;;;;5074151;28;20514;-62
2023/07/27 13:23:59;;;;;;;3.07;1.40;;;;;;;;;;5081479;28;20448;-61
2023/07/27 13:26:27;;;;;;;1.40;1.30;;;;;;;;;;5084569;28;20502;-62
2023/07/27 13:28:53;;;;;;;1.33;1.23;;;;;;;;;;5084039;28;20991;-61
2023/07/27 13:31:22;;;;;;;1.90;1.27;;;;;;;;;;5083683;28;20483;-61
2023/07/27 13:33:49;;;;;;;1.63;1.53;;;;;;;;;;5081644;28;20473;-61
2023/07/27 13:36:15;;;;;;;2.50;2.30;;;;;;;;;;5083856;28;20554;-61
2023/07/27 13:38:42;;;;;;;2.03;1.93;;;;;;;;;;5084989;28;20475;-61
2023/07/27 13:41:08;;;;;;;1.83;1.70;;;;;;;;;;5084204;28;20458;-60
2023/07/27 13:43:37;;;;;;;2.23;2.03;;;;;;;;;;5084333;28;20750;-61
2023/07/27 13:46:03;;;;;;;2.93;1.70;;;;;;;;;;5085140;28;20466;-61
2023/07/27 13:48:29;;;;;;;1.63;1.53;;;;;;;;;;5084872;28;20475;-60
2023/07/27 13:50:56;;;;;;;1.73;1.43;;;;;;;;;;5084044;28;20471;-61
2023/07/27 13:53:22;;;;;;;1.87;1.77;;;;;;;;;;5084383;28;20547;-61
2023/07/27 13:55:50;;;;;;;1.80;1.70;;;;;;;;;;5083882;28;20451;-60
2023/07/27 13:58:16;;;;;;;2.03;1.90;;;;;;;;;;5083872;28;21011;-61
2023/07/27 14:00:44;;;;;;;1.53;1.43;;;;;;;;;;5085077;28;20483;-61
2023/07/27 14:03:10;;;;;;;1.60;1.50;;;;;;;;;;5081153;28;20495;-61
2023/07/27 14:05:37;;;;;;;1.97;1.60;;;;;;;;;;5079912;28;20971;-61
2023/07/27 14:08:03;;;;;;;1.43;1.20;;;;;;;;;;5073381;28;20510;-61
2023/07/27 14:10:30;;;;;;;1.47;1.37;;;;;;;;;;5081022;28;20471;-61
2023/07/27 14:12:56;;;;;;;1.77;1.47;;;;;;;;;;5081037;28;20440;-61
2023/07/27 14:15:22;;;;;;;1.43;1.33;;;;;;;;;;5081416;28;20590;-61
2023/07/27 14:17:50;;;;;;;2.40;1.30;;;;;;;;;;5081422;28;20444;-62
2023/07/27 14:20:17;;;;;;;1.80;1.00;;;;;;;;;;5080305;28;20502;-62
2023/07/27 14:22:43;;;;;;;1.30;1.20;;;;;;;;;;5080974;28;20468;-62
2023/07/27 14:25:10;;;;;;;1.90;1.77;;;;;;;;;;5080805;28;20783;-62
2023/07/27 14:27:36;;;;;;;2.07;1.33;;;;;;;;;;5080095;28;20456;-62
2023/07/27 14:30:03;;;;;;;1.77;1.67;;;;;;;;;;5081237;28;20542;-62
2023/07/27 14:32:30;;;;;;;1.50;1.40;;;;;;;;;;5080961;28;20459;-61
2023/07/27 14:34:58;;;;;;;1.57;1.47;;;;;;;;;;5080335;28;21072;-61
2023/07/27 14:37:24;;;;;;;1.47;1.37;;;;;;;;;;5080861;28;20847;-62
2023/07/27 14:39:51;;;;;;;1.70;1.60;;;;;;;;;;5080986;28;20502;-62
2023/07/27 14:42:17;;;;;;;2.03;1.60;;;;;;;;;;5079520;28;20594;-62